Time;durP1;ratioP1;P1;durP2;ratioP2;P2;SDS_P1;SDS_P2;PMS_P1;PMS_P2;Temp;Humidity;BMP_temperature;BMP_pressure;BME280_temperature;BME280_humidity;BME280_pressure;Samples;Min_cycle;Max_cycle;Signal;HPM_P1;HPM_P2
2022/03/03 00:00:09;;;;;;;18.73;12.80;;;;;;;0.78;63.24;101596.47;4957020;28;20152;-83
2022/03/03 00:02:35;;;;;;;23.02;13.65;;;;;;;0.79;62.93;101593.97;4943869;28;20047;-83
2022/03/03 00:05:04;;;;;;;18.55;11.98;;;;;;;0.80;63.06;101595.75;4943440;28;20113;-83
2022/03/03 00:07:31;;;;;;;20.48;14.05;;;;;;;0.78;63.14;101591.31;4958438;28;20065;-83
2022/03/03 00:09:57;;;;;;;20.80;14.00;;;;;;;0.78;63.48;101593.91;4942383;28;20049;-83
2022/03/03 00:12:24;;;;;;;24.60;14.95;;;;;;;0.78;63.54;101594.81;4933236;28;20047;-83
2022/03/03 00:14:51;;;;;;;26.95;14.77;;;;;;;0.77;63.32;101593.03;4963142;28;20536;-83
2022/03/03 00:17:17;;;;;;;23.00;14.15;;;;;;;0.81;63.93;101599.22;4946102;28;20050;-83
2022/03/03 00:19:44;;;;;;;26.92;13.68;;;;;;;0.80;63.81;101594.88;4952846;28;20065;-84
2022/03/03 00:22:11;;;;;;;20.30;15.20;;;;;;;0.81;63.73;101584.63;4958433;28;20134;-83
2022/03/03 00:24:38;;;;;;;23.83;13.77;;;;;;;0.85;63.91;101587.34;4943137;28;20059;-83
2022/03/03 00:27:06;;;;;;;21.90;15.50;;;;;;;0.84;63.82;101589.03;4953724;28;20061;-82
2022/03/03 00:29:33;;;;;;;25.65;13.20;;;;;;;0.86;63.54;101586.53;4958462;28;20140;-84
2022/03/03 00:32:00;;;;;;;25.05;12.10;;;;;;;0.85;63.91;101583.06;4940044;28;20110;-83
2022/03/03 00:34:26;;;;;;;24.45;14.13;;;;;;;0.80;63.81;101575.13;4934714;28;20055;-83
2022/03/03 00:36:53;;;;;;;21.48;14.40;;;;;;;0.76;64.01;101572.34;4958564;28;20054;-83
2022/03/03 00:39:20;;;;;;;22.00;14.82;;;;;;;0.72;64.21;101566.16;4954410;28;20379;-83
2022/03/03 00:41:46;;;;;;;22.02;13.07;;;;;;;0.69;64.84;101565.13;4954953;28;20074;-82
2022/03/03 00:44:13;;;;;;;22.00;14.43;;;;;;;0.62;64.74;101551.09;4957840;28;20062;-83
2022/03/03 00:46:40;;;;;;;23.83;13.88;;;;;;;0.58;65.43;101544.03;4938332;28;20050;-83
2022/03/03 00:49:07;;;;;;;25.60;14.88;;;;;;;0.57;66.12;101550.88;4943279;28;20054;-83
2022/03/03 00:51:35;;;;;;;22.38;14.30;;;;;;;0.50;65.75;101541.09;4940559;28;20046;-82
2022/03/03 00:54:02;;;;;;;21.30;14.15;;;;;;;0.41;66.68;101544.13;4940629;28;20086;-84
2022/03/03 00:56:28;;;;;;;21.00;13.50;;;;;;;0.37;66.82;101547.38;4956179;28;20051;-83
2022/03/03 00:58:55;;;;;;;25.17;14.60;;;;;;;0.31;67.76;101549.66;4955471;28;20039;-83
2022/03/03 01:01:22;;;;;;;20.45;13.07;;;;;;;0.28;67.61;101554.66;4960678;28;20049;-83
2022/03/03 01:03:48;;;;;;;27.55;14.60;;;;;;;0.23;68.18;101557.00;4937294;28;20829;-83
2022/03/03 01:06:15;;;;;;;22.50;13.57;;;;;;;0.21;67.92;101561.22;4952252;28;20051;-81
2022/03/03 01:08:42;;;;;;;19.65;13.07;;;;;;;0.20;68.23;101563.72;4941181;28;20074;-83
2022/03/03 01:11:08;;;;;;;20.50;14.35;;;;;;;0.19;68.00;101562.81;4949577;28;20050;-82
2022/03/03 01:13:35;;;;;;;23.17;14.18;;;;;;;0.21;68.18;101550.03;4944169;28;20096;-83
2022/03/03 01:16:02;;;;;;;22.35;13.27;;;;;;;0.20;68.57;101548.28;4960457;28;20160;-84
2022/03/03 01:18:29;;;;;;;22.25;13.77;;;;;;;0.21;68.09;101542.28;4939754;28;20388;-83
2022/03/03 01:20:56;;;;;;;22.20;12.95;;;;;;;0.21;68.10;101543.19;4964151;28;20054;-83
2022/03/03 01:23:23;;;;;;;22.33;13.18;;;;;;;0.21;68.38;101542.28;4960621;28;20098;-84
2022/03/03 01:25:49;;;;;;;20.38;13.63;;;;;;;0.19;68.23;101538.78;4960374;28;20050;-83
2022/03/03 01:28:16;;;;;;;22.83;13.13;;;;;;;0.19;68.08;101537.06;4964538;28;20046;-83
2022/03/03 01:30:43;;;;;;;24.15;14.60;;;;;;;0.21;68.96;101542.28;4964477;28;20050;-83
2022/03/03 01:33:11;;;;;;;22.65;13.68;;;;;;;0.22;68.37;101537.25;4955145;28;20046;-83
2022/03/03 01:35:38;;;;;;;26.42;14.32;;;;;;;0.20;68.70;101537.97;4962420;28;20092;-83
2022/03/03 01:38:04;;;;;;;21.02;13.30;;;;;;;0.21;68.66;101532.00;4951148;28;20061;-83
2022/03/03 01:40:31;;;;;;;27.42;15.70;;;;;;;0.17;68.88;101525.84;4971168;28;20047;-83
2022/03/03 01:42:58;;;;;;;20.75;11.48;;;;;;;0.15;68.16;101530.03;4947788;28;20497;-84
2022/03/03 01:45:24;;;;;;;23.33;13.98;;;;;;;0.12;68.52;101538.47;4961871;28;20063;-83
2022/03/03 01:47:51;;;;;;;21.92;13.35;;;;;;;0.06;68.56;101538.19;4965077;28;20047;-81
2022/03/03 01:50:19;;;;;;;23.73;13.75;;;;;;;0.03;67.94;101537.13;4939212;28;20864;-83
2022/03/03 01:52:45;;;;;;;19.38;12.57;;;;;;;-0.02;67.95;101540.38;4953483;28;20150;-83
2022/03/03 01:55:12;;;;;;;25.92;13.65;;;;;;;-0.06;68.09;101538.47;4963092;28;20043;-83
2022/03/03 01:57:39;;;;;;;20.48;12.63;;;;;;;-0.12;68.01;101532.16;4948113;28;20047;-83
2022/03/03 02:00:08;;;;;;;22.63;14.15;;;;;;;-0.17;68.08;101537.06;4961225;28;20065;-83
2022/03/03 02:02:35;;;;;;;27.08;14.55;;;;;;;-0.24;68.04;101548.75;4945306;28;20055;-83
2022/03/03 02:05:01;;;;;;;21.60;13.52;;;;;;;-0.29;68.17;101533.91;4937061;28;20050;-83
2022/03/03 02:07:28;;;;;;;24.27;12.82;;;;;;;-0.38;68.52;101535.22;4969245;28;20169;-83
2022/03/03 02:09:55;;;;;;;23.80;15.57;;;;;;;-0.43;68.49;101528.97;4958420;28;20473;-83
2022/03/03 02:12:21;;;;;;;24.42;13.70;;;;;;;-0.47;68.38;101526.13;4947162;28;20529;-83
2022/03/03 02:14:49;;;;;;;21.40;13.27;;;;;;;-0.52;67.81;101521.66;4959969;28;20061;-83
2022/03/03 02:17:17;;;;;;;24.90;13.10;;;;;;;-0.55;68.14;101518.03;4964045;28;20052;-83
2022/03/03 02:19:44;;;;;;;19.98;12.98;;;;;;;-0.58;68.54;101523.91;4956941;28;20171;-82
2022/03/03 02:22:11;;;;;;;22.73;13.20;;;;;;;-0.63;68.56;101521.91;4974038;28;20039;-82
2022/03/03 02:24:39;;;;;;;21.42;11.77;;;;;;;-0.66;68.36;101522.66;4945415;28;20050;-83
2022/03/03 02:27:06;;;;;;;19.38;11.75;;;;;;;-0.71;68.97;101526.66;4938878;28;20059;-83
2022/03/03 02:29:35;;;;;;;24.77;12.52;;;;;;;-0.75;69.20;101523.06;4964278;28;20050;-83
2022/03/03 02:32:07;;;;;;;23.80;13.65;;;;;;;-0.78;68.91;101522.91;4945610;28;20074;-83
2022/03/03 02:34:36;;;;;;;20.80;11.77;;;;;;;-0.82;69.36;101518.41;4941087;28;20129;-83
2022/03/03 02:37:03;;;;;;;21.00;13.27;;;;;;;-0.86;69.56;101527.66;4961793;28;20046;-83
2022/03/03 02:39:30;;;;;;;28.80;13.52;;;;;;;-0.89;69.51;101524.91;4963026;28;20155;-83
2022/03/03 02:41:56;;;;;;;22.90;11.90;;;;;;;-0.91;69.78;101523.06;4959543;28;20134;-83
2022/03/03 02:44:23;;;;;;;24.80;13.35;;;;;;;-0.96;69.70;101525.41;4948777;28;20062;-82
2022/03/03 02:46:49;;;;;;;19.33;12.25;;;;;;;-0.97;70.13;101526.22;4966961;28;20054;-83
2022/03/03 02:49:16;;;;;;;20.65;13.48;;;;;;;-0.95;69.41;101531.41;4956734;28;21193;-84
2022/03/03 02:51:43;;;;;;;19.92;12.43;;;;;;;-0.95;69.56;101521.13;4958842;28;20058;-83
2022/03/03 02:54:09;;;;;;;20.45;14.38;;;;;;;-0.97;69.68;101528.78;4960709;28;20050;-82
2022/03/03 02:57:53;;;;;;;22.95;13.88;;;;;;;-0.99;69.48;101535.53;4946829;28;20056;-84
2022/03/03 02:59:23;;;;;;;20.38;11.88;;;;;;;-1.01;69.62;101525.16;4951200;28;20125;-82
2022/03/03 03:01:49;;;;;;;22.98;12.32;;;;;;;-1.02;69.88;101525.09;4947153;28;20046;-83
2022/03/03 03:04:16;;;;;;;23.95;13.30;;;;;;;-1.02;69.58;101519.94;4959111;28;20047;-82
2022/03/03 03:06:43;;;;;;;31.20;13.30;;;;;;;-1.03;69.37;101520.75;4961542;28;20058;-83
2022/03/03 03:09:09;;;;;;;21.15;12.95;;;;;;;-1.06;69.74;101530.88;4940651;28;20521;-83
2022/03/03 03:11:36;;;;;;;22.90;13.45;;;;;;;-1.07;69.87;101518.81;4944012;28;20058;-83
2022/03/03 03:14:03;;;;;;;17.80;12.05;;;;;;;-1.09;69.82;101518.75;4943829;28;20061;-83
2022/03/03 03:16:29;;;;;;;22.52;12.38;;;;;;;-1.09;70.06;101513.59;4942940;28;20061;-83
2022/03/03 03:18:56;;;;;;;22.00;11.95;;;;;;;-1.10;69.85;101514.41;4947211;28;20050;-83
2022/03/03 03:21:22;;;;;;;21.77;12.73;;;;;;;-1.10;69.84;101519.53;4945666;28;20142;-83
2022/03/03 03:23:49;;;;;;;20.13;13.35;;;;;;;-1.12;69.87;101515.13;4950295;28;20053;-83
2022/03/03 03:26:15;;;;;;;18.33;11.27;;;;;;;-1.17;70.33;101510.63;4945960;28;20050;-83
2022/03/03 03:28:42;;;;;;;20.48;11.32;;;;;;;-1.16;70.47;101508.97;4964527;28;20046;-83
2022/03/03 03:31:08;;;;;;;17.98;12.40;;;;;;;-1.19;70.40;101506.22;4945969;28;20062;-84
2022/03/03 03:33:35;;;;;;;23.58;13.55;;;;;;;-1.18;70.33;101514.00;4944762;28;20101;-83
2022/03/03 03:36:01;;;;;;;23.02;14.35;;;;;;;-1.21;70.25;101503.56;4961988;28;20418;-85
2022/03/03 03:38:28;;;;;;;24.35;14.05;;;;;;;-1.23;70.51;101505.16;4952750;28;20050;-84
2022/03/03 03:40:55;;;;;;;24.20;13.20;;;;;;;-1.24;70.78;101502.50;4945188;28;20070;-85
2022/03/03 03:43:22;;;;;;;17.58;12.77;;;;;;;-1.27;70.27;101495.53;4959684;28;20580;-85
2022/03/03 03:45:48;;;;;;;21.65;13.68;;;;;;;-1.30;71.01;101495.38;4950409;28;20050;-85
2022/03/03 03:48:15;;;;;;;22.83;13.93;;;;;;;-1.32;70.79;101486.69;4944504;28;20148;-84
2022/03/03 03:50:42;;;;;;;20.60;12.77;;;;;;;-1.33;71.24;101485.81;4955361;28;20050;-84
2022/03/03 03:53:09;;;;;;;22.02;12.23;;;;;;;-1.36;70.76;101485.63;4942046;28;20108;-85
2022/03/03 03:55:36;;;;;;;21.23;13.13;;;;;;;-1.38;70.90;101489.84;4944973;28;20504;-85
2022/03/03 03:58:03;;;;;;;21.45;12.68;;;;;;;-1.40;71.21;101495.69;4958057;28;20050;-84
2022/03/03 04:00:30;;;;;;;21.02;13.48;;;;;;;-1.42;70.96;101498.19;4960417;28;20043;-85
2022/03/03 04:02:57;;;;;;;22.58;13.68;;;;;;;-1.45;71.56;101481.72;4959165;28;20042;-85
2022/03/03 04:05:24;;;;;;;22.80;12.60;;;;;;;-1.45;71.33;101484.28;4946364;28;20054;-85
2022/03/03 04:07:51;;;;;;;23.70;12.93;;;;;;;-1.43;71.93;101485.25;4960949;28;20058;-84
2022/03/03 04:10:18;;;;;;;20.45;13.20;;;;;;;-1.45;71.37;101484.28;4961266;28;20120;-84
2022/03/03 04:12:44;;;;;;;19.30;13.10;;;;;;;-1.47;71.53;101499.63;4962208;28;20053;-84
2022/03/03 04:15:11;;;;;;;21.25;12.57;;;;;;;-1.51;72.32;101501.13;4962316;28;20121;-85
2022/03/03 04:17:37;;;;;;;19.98;13.27;;;;;;;-1.50;72.62;101508.03;4944072;28;20046;-85
2022/03/03 04:20:06;;;;;;;20.80;13.55;;;;;;;-1.50;72.95;101502.00;4961727;28;20137;-83
2022/03/03 04:22:35;;;;;;;20.85;12.82;;;;;;;-1.52;72.25;101495.91;4962993;28;20050;-84
2022/03/03 04:25:02;;;;;;;21.33;13.75;;;;;;;-1.53;72.27;101495.03;4958210;28;20520;-85
2022/03/03 04:27:28;;;;;;;19.65;13.25;;;;;;;-1.55;72.76;101500.88;4948828;28;20420;-84
2022/03/03 04:29:55;;;;;;;23.88;13.82;;;;;;;-1.57;73.19;101498.22;4968283;28;20733;-84
2022/03/03 04:32:21;;;;;;;28.05;14.82;;;;;;;-1.56;73.22;101488.84;4943571;28;20062;-84
2022/03/03 04:34:48;;;;;;;24.42;14.20;;;;;;;-1.56;73.26;101488.84;4952098;28;20042;-85
2022/03/03 04:37:14;;;;;;;23.02;14.45;;;;;;;-1.58;73.04;101485.31;4963011;28;20149;-84
2022/03/03 04:39:41;;;;;;;26.00;12.95;;;;;;;-1.58;73.58;101485.31;4945178;28;20061;-84
2022/03/03 04:42:08;;;;;;;22.75;13.32;;;;;;;-1.58;73.49;101490.44;4948809;28;20050;-85
2022/03/03 04:44:34;;;;;;;18.70;13.63;;;;;;;-1.60;73.82;101482.66;4952067;28;20583;-85
2022/03/03 04:47:01;;;;;;;22.15;14.27;;;;;;;-1.58;73.83;101493.00;4950290;28;20081;-84
2022/03/03 04:49:30;;;;;;;25.70;15.23;;;;;;;-1.62;74.30;101491.09;4966546;28;20052;-85
2022/03/03 04:51:57;;;;;;;26.17;14.80;;;;;;;-1.65;74.55;101488.38;4958606;28;20065;-85
2022/03/03 04:54:23;;;;;;;23.60;14.40;;;;;;;-1.68;74.46;101487.38;4962060;28;20077;-84
2022/03/03 04:56:51;;;;;;;24.58;15.65;;;;;;;-1.72;74.43;101490.59;4962491;28;20050;-85
2022/03/03 04:59:18;;;;;;;27.02;15.13;;;;;;;-1.73;74.66;101491.38;4962726;28;20074;-84
2022/03/03 05:01:44;;;;;;;24.23;13.45;;;;;;;-1.77;74.93;101492.03;4965639;28;20065;-85
2022/03/03 05:04:11;;;;;;;21.52;14.35;;;;;;;-1.79;74.74;101498.75;4963572;28;20035;-83
2022/03/03 05:06:37;;;;;;;27.08;14.32;;;;;;;-1.82;74.66;101498.59;4963539;28;20046;-85
2022/03/03 05:09:04;;;;;;;21.90;12.65;;;;;;;-1.84;74.39;101489.91;4955357;28;20057;-85
2022/03/03 05:11:30;;;;;;;20.33;13.82;;;;;;;-1.86;74.51;101488.97;4969486;28;20051;-84
2022/03/03 05:13:57;;;;;;;25.65;14.07;;;;;;;-1.86;74.92;101494.09;4963961;28;20113;-85
2022/03/03 05:16:24;;;;;;;20.92;13.40;;;;;;;-1.87;75.00;101498.31;4965106;28;20043;-85
2022/03/03 05:18:50;;;;;;;28.33;15.15;;;;;;;-1.88;74.83;101500.81;4964321;28;20413;-85
2022/03/03 05:21:17;;;;;;;23.50;14.27;;;;;;;-1.89;74.53;101496.47;4943348;28;20137;-84
2022/03/03 05:23:43;;;;;;;22.70;14.07;;;;;;;-1.90;74.75;101505.00;4949999;28;20076;-84
2022/03/03 05:26:10;;;;;;;23.90;13.80;;;;;;;-1.94;74.97;101498.78;4964841;28;20046;-84
2022/03/03 05:28:37;;;;;;;22.20;13.02;;;;;;;-1.93;75.43;101498.00;4966714;28;20397;-85
2022/03/03 05:31:04;;;;;;;24.13;14.00;;;;;;;-1.95;74.70;101494.47;4951833;28;20324;-85
2022/03/03 05:33:32;;;;;;;24.67;15.13;;;;;;;-1.99;75.17;101500.22;4966452;28;20052;-85
2022/03/03 05:36:03;;;;;;;26.92;14.50;;;;;;;-2.00;74.92;101503.56;4949733;28;20129;-83
2022/03/03 05:38:33;;;;;;;21.65;14.63;;;;;;;-2.03;75.50;101501.72;4946198;28;20050;-85
2022/03/03 05:41:01;;;;;;;24.08;14.68;;;;;;;-2.08;76.05;101500.59;4942846;28;20043;-85
2022/03/03 05:43:28;;;;;;;23.52;14.48;;;;;;;-2.12;75.65;101496.09;4947366;28;20407;-84
2022/03/03 05:45:56;;;;;;;25.45;15.88;;;;;;;-2.15;76.24;101508.75;4953902;28;20050;-85
2022/03/03 05:48:25;;;;;;;26.52;16.35;;;;;;;-2.14;77.06;101518.19;4961139;28;20062;-84
2022/03/03 05:50:52;;;;;;;32.63;19.92;;;;;;;-2.09;77.90;101531.28;4965491;28;20055;-85
2022/03/03 05:53:19;;;;;;;41.20;18.13;;;;;;;-2.05;78.29;101528.97;4963990;28;20046;-84
2022/03/03 05:55:56;;;;;;;32.50;16.08;;;;;;;-2.05;77.65;101526.41;4938957;28;20571;-84
2022/03/03 05:58:29;;;;;;;42.00;20.83;;;;;;;-2.09;77.79;101516.75;4968102;28;20058;-85
2022/03/03 06:00:58;;;;;;;31.02;18.45;;;;;;;-2.13;78.54;101507.13;4952460;28;20065;-83
2022/03/03 06:03:29;;;;;;;34.63;17.05;;;;;;;-2.14;79.08;101505.34;4962848;28;20054;-85
2022/03/03 06:06:09;;;;;;;30.08;16.85;;;;;;;-2.14;79.91;101500.22;4948998;28;20588;-85
2022/03/03 06:08:42;;;;;;;34.42;18.23;;;;;;;-2.14;79.63;101491.66;4940501;28;20064;-85
2022/03/03 06:11:16;;;;;;;34.70;18.92;;;;;;;-2.17;80.21;101500.94;4951077;28;20061;-85
2022/03/03 06:13:48;;;;;;;31.60;19.13;;;;;;;-2.19;81.05;101511.91;4965959;28;20054;-85
2022/03/03 06:16:21;;;;;;;32.65;17.80;;;;;;;-2.19;81.62;101500.00;4963869;28;20057;-85
2022/03/03 06:18:50;;;;;;;39.63;20.80;;;;;;;-2.19;82.74;101499.09;4950799;28;20047;-84
2022/03/03 06:21:19;;;;;;;38.33;20.02;;;;;;;-2.16;82.45;101491.59;4945203;28;20077;-84
2022/03/03 06:23:46;;;;;;;35.13;19.77;;;;;;;-2.11;83.56;101497.84;4957929;28;20038;-85
2022/03/03 06:26:18;;;;;;;36.92;19.95;;;;;;;-2.13;83.54;101491.75;4962296;28;20042;-85
2022/03/03 06:28:46;;;;;;;40.97;21.08;;;;;;;-2.13;83.96;101496.88;4941923;28;20045;-85
2022/03/03 06:31:14;;;;;;;37.65;19.30;;;;;;;-2.17;83.80;101500.94;4983733;28;20112;-85
2022/03/03 06:33:41;;;;;;;33.13;19.77;;;;;;;-2.17;83.89;101497.50;4951573;28;20052;-83
2022/03/03 06:36:08;;;;;;;32.88;19.45;;;;;;;-2.17;83.88;101497.50;4944435;28;20129;-83
2022/03/03 06:38:35;;;;;;;40.88;20.65;;;;;;;-2.16;83.91;101495.03;4964929;28;20043;-84
2022/03/03 06:41:05;;;;;;;35.70;17.93;;;;;;;-2.14;83.47;101486.53;4951848;28;20053;-83
2022/03/03 06:43:32;;;;;;;47.40;24.97;;;;;;;-2.13;83.98;101491.75;4962593;28;20547;-84
2022/03/03 06:46:00;;;;;;;36.30;21.83;;;;;;;-2.11;84.64;101499.53;4952903;28;20050;-84
2022/03/03 06:48:26;;;;;;;47.60;23.95;;;;;;;-2.09;84.25;101497.94;4948623;28;20050;-83
2022/03/03 06:50:55;;;;;;;34.00;19.17;;;;;;;-2.06;85.13;101499.00;4960152;28;20057;-84
2022/03/03 06:53:31;;;;;;;45.95;21.30;;;;;;;-2.06;83.59;101498.09;4954077;28;20048;-84
2022/03/03 06:56:10;;;;;;;38.00;20.55;;;;;;;-2.05;84.51;101503.31;4965468;28;20549;-83
2022/03/03 06:58:38;;;;;;;39.00;19.05;;;;;;;-2.04;84.63;101499.06;4964424;28;20099;-84
2022/03/03 07:01:09;;;;;;;35.35;18.63;;;;;;;-2.01;85.12;101499.25;4967318;28;20050;-84
2022/03/03 07:03:37;;;;;;;36.40;19.48;;;;;;;-1.96;84.81;101490.13;4946375;28;20050;-84
2022/03/03 07:06:05;;;;;;;31.83;18.38;;;;;;;-1.93;84.20;101489.41;4965013;28;20202;-84
2022/03/03 07:08:35;;;;;;;35.30;18.98;;;;;;;-1.90;83.88;101492.16;4951736;28;20045;-83
2022/03/03 07:11:02;;;;;;;40.47;19.33;;;;;;;-1.84;84.40;101485.69;4962690;28;20050;-84
2022/03/03 07:13:28;;;;;;;32.90;17.80;;;;;;;-1.43;83.09;101495.53;4982918;28;20042;-83
2022/03/03 07:16:18;;;;;;;42.28;21.08;;;;;;;-0.86;81.50;101494.25;4986218;28;20077;-83
2022/03/03 07:18:52;;;;;;;31.67;18.17;;;;;;;-0.12;79.15;101494.41;4960239;28;20039;-82
2022/03/03 07:21:37;;;;;;;33.88;19.42;;;;;;;0.56;76.83;101482.13;4967320;28;20594;-83
2022/03/03 07:24:23;;;;;;;29.15;17.08;;;;;;;1.15;73.74;101492.44;4956870;28;20061;-85
2022/03/03 07:26:52;;;;;;;30.38;16.13;;;;;;;1.67;71.59;101495.41;4961492;28;20054;-84
2022/03/03 07:29:26;;;;;;;28.25;17.50;;;;;;;2.13;69.90;101492.97;4961227;28;20053;-85
2022/03/03 07:31:57;;;;;;;31.08;16.35;;;;;;;2.53;68.56;101482.41;4942339;28;20054;-84
2022/03/03 07:34:33;;;;;;;25.92;15.52;;;;;;;3.00;67.20;101491.03;4964698;28;20046;-85
2022/03/03 07:37:14;;;;;;;34.25;17.83;;;;;;;3.39;64.68;101477.72;4966036;28;20555;-83
2022/03/03 07:39:46;;;;;;;28.92;17.13;;;;;;;3.78;63.61;101472.09;4960870;28;20084;-84
2022/03/03 07:42:17;;;;;;;26.95;16.85;;;;;;;4.12;62.65;101464.50;4964713;28;20031;-84
2022/03/03 07:44:45;;;;;;;26.77;17.17;;;;;;;4.51;61.88;101463.03;4949429;28;20058;-84
2022/03/03 07:47:12;;;;;;;27.27;17.95;;;;;;;4.90;60.58;101462.38;4967694;28;20053;-84
2022/03/03 07:49:40;;;;;;;24.63;17.30;;;;;;;5.12;58.87;101456.06;4965671;28;20081;-85
2022/03/03 07:52:10;;;;;;;23.17;14.98;;;;;;;5.25;57.87;101449.47;4949243;28;20073;-84
2022/03/03 07:54:41;;;;;;;28.33;18.00;;;;;;;5.41;56.33;101445.53;4962816;28;20038;-85
2022/03/03 07:57:14;;;;;;;27.40;17.33;;;;;;;5.40;57.26;101443.81;4953536;28;20161;-85
2022/03/03 07:59:50;;;;;;;25.90;16.40;;;;;;;4.87;56.67;101441.56;4959815;28;20728;-85
2022/03/03 08:02:23;;;;;;;29.20;17.00;;;;;;;4.07;57.42;101443.63;4948608;28;20515;-85
2022/03/03 08:04:52;;;;;;;26.10;16.73;;;;;;;3.40;59.42;101452.69;4964085;28;20046;-85
2022/03/03 08:07:20;;;;;;;27.42;17.38;;;;;;;2.80;60.26;101467.03;4961951;28;20050;-85
2022/03/03 08:09:53;;;;;;;26.50;18.40;;;;;;;2.43;61.54;101470.84;4965955;28;20073;-85
2022/03/03 08:12:20;;;;;;;21.10;15.43;;;;;;;2.13;62.32;101474.91;4964726;28;20050;-85
2022/03/03 08:14:48;;;;;;;24.55;16.80;;;;;;;1.89;62.89;101474.84;4982318;28;20042;-85
2022/03/03 08:17:19;;;;;;;21.63;16.70;;;;;;;1.69;63.37;101488.63;4963475;28;20060;-85
2022/03/03 08:19:46;;;;;;;27.58;18.83;;;;;;;1.53;64.11;101487.13;4941237;28;20375;-84
2022/03/03 08:22:14;;;;;;;35.75;19.17;;;;;;;1.43;64.35;101493.59;4947226;28;20135;-85
2022/03/03 08:24:43;;;;;;;26.33;17.20;;;;;;;1.34;64.80;101498.38;4942325;28;20129;-85
2022/03/03 08:27:12;;;;;;;28.25;18.60;;;;;;;1.29;64.55;101493.00;4955871;28;20046;-85
2022/03/03 08:29:40;;;;;;;34.58;18.33;;;;;;;1.24;65.04;101497.97;4945388;28;20050;-85
2022/03/03 08:32:12;;;;;;;27.60;16.85;;;;;;;1.22;64.74;101503.91;4954816;28;20049;-85
2022/03/03 08:34:58;;;;;;;24.60;17.77;;;;;;;1.19;65.60;101504.66;4957430;28;20043;-85
2022/03/03 08:37:38;;;;;;;28.48;17.90;;;;;;;1.21;65.38;101505.56;4965473;28;20050;-84
2022/03/03 08:40:13;;;;;;;36.90;22.20;;;;;;;1.25;65.58;101509.16;4960447;28;20049;-84
2022/03/03 08:42:48;;;;;;;29.58;17.65;;;;;;;1.28;65.26;101506.75;4953602;28;20418;-84
2022/03/03 08:45:19;;;;;;;25.58;16.77;;;;;;;1.34;65.45;101508.69;4950456;28;20054;-84
2022/03/03 08:47:59;;;;;;;33.65;19.58;;;;;;;1.40;65.53;101516.69;4957994;28;20051;-84
2022/03/03 08:50:31;;;;;;;32.05;17.10;;;;;;;1.45;65.35;101510.91;4947372;28;20101;-84
2022/03/03 08:52:59;;;;;;;26.52;17.40;;;;;;;1.54;64.64;101510.41;4942867;28;20057;-85
2022/03/03 08:55:28;;;;;;;33.63;18.52;;;;;;;1.61;64.70;101501.22;4940628;28;20438;-84
2022/03/03 08:57:58;;;;;;;31.83;17.98;;;;;;;1.73;63.93;101509.47;4943223;28;20061;-84
2022/03/03 09:00:26;;;;;;;24.98;15.55;;;;;;;1.80;63.45;101502.88;4965412;28;20446;-84
2022/03/03 09:02:54;;;;;;;31.38;18.02;;;;;;;1.88;63.70;101511.78;4955474;28;20157;-85
2022/03/03 09:05:21;;;;;;;29.63;16.30;;;;;;;1.95;62.68;101516.38;4944031;28;20057;-85
2022/03/03 09:07:48;;;;;;;27.10;16.50;;;;;;;2.03;62.70;101510.66;4944209;28;20057;-84
2022/03/03 09:10:16;;;;;;;34.90;15.32;;;;;;;2.08;62.09;101503.97;4947728;28;20058;-83
2022/03/03 09:12:44;;;;;;;29.80;17.25;;;;;;;2.12;62.06;101498.97;4930848;28;20104;-84
2022/03/03 09:15:12;;;;;;;28.75;17.10;;;;;;;2.14;61.38;101499.03;4943587;28;20165;-84
2022/03/03 09:17:39;;;;;;;30.42;17.40;;;;;;;2.20;61.89;101494.09;4947845;28;20606;-83
2022/03/03 09:20:11;;;;;;;23.42;16.50;;;;;;;2.23;61.51;101495.91;4946261;28;20145;-82
2022/03/03 09:22:38;;;;;;;30.70;19.40;;;;;;;2.27;61.13;101500.41;4955237;28;20062;-84
2022/03/03 09:25:06;;;;;;;24.85;15.40;;;;;;;2.37;61.19;101501.63;4946861;28;20047;-85
2022/03/03 09:27:39;;;;;;;27.15;17.48;;;;;;;2.49;60.92;101504.69;4938833;28;20062;-83
2022/03/03 09:30:07;;;;;;;29.58;17.63;;;;;;;2.59;60.57;101500.72;4957670;28;20101;-84
2022/03/03 09:32:38;;;;;;;31.80;17.42;;;;;;;2.65;60.63;101500.97;4945569;28;20132;-84
2022/03/03 09:35:05;;;;;;;31.20;17.40;;;;;;;2.75;60.22;101502.16;4961637;28;20405;-85
2022/03/03 09:37:35;;;;;;;29.00;16.70;;;;;;;2.83;60.08;101511.13;4941229;28;20055;-85
2022/03/03 09:40:03;;;;;;;31.48;18.23;;;;;;;2.93;59.90;101507.13;4941709;28;20130;-85
2022/03/03 09:42:33;;;;;;;25.38;16.63;;;;;;;2.98;59.68;101495.25;4945371;28;20739;-83
2022/03/03 09:45:09;;;;;;;25.17;16.13;;;;;;;3.01;59.36;101486.72;4964386;28;20055;-84
2022/03/03 09:47:40;;;;;;;33.72;20.20;;;;;;;3.12;58.23;101488.00;4950192;28;20047;-83
2022/03/03 09:50:08;;;;;;;31.20;18.50;;;;;;;3.21;58.40;101497.78;4942349;28;20050;-84
2022/03/03 09:52:38;;;;;;;41.15;20.80;;;;;;;3.28;58.09;101494.56;4949569;28;20061;-84
2022/03/03 09:55:06;;;;;;;31.77;20.13;;;;;;;3.38;57.95;101481.13;4959829;28;20129;-84
2022/03/03 09:57:33;;;;;;;34.80;18.77;;;;;;;3.53;56.67;101487.63;4958750;28;20050;-85
2022/03/03 10:00:03;;;;;;;29.42;18.88;;;;;;;3.59;56.97;101482.66;4953107;28;20078;-84
2022/03/03 10:02:29;;;;;;;27.30;16.95;;;;;;;3.72;57.49;101479.66;4963418;28;20066;-85
2022/03/03 10:04:58;;;;;;;36.08;20.23;;;;;;;3.84;56.64;101486.06;4964773;28;20043;-84
2022/03/03 10:07:25;;;;;;;34.40;19.98;;;;;;;3.98;56.14;101488.25;4950861;28;20079;-83
2022/03/03 10:10:07;;;;;;;35.55;19.10;;;;;;;4.10;55.71;101486.88;4962330;28;20067;-83
2022/03/03 10:12:51;;;;;;;29.13;17.92;;;;;;;4.20;55.50;101482.84;4963322;28;20050;-84
2022/03/03 10:15:20;;;;;;;31.25;17.13;;;;;;;4.32;55.39;101482.34;4952010;28;20828;-85
2022/03/03 10:17:59;;;;;;;33.47;17.55;;;;;;;4.44;55.41;101482.72;4948731;28;20050;-84
2022/03/03 10:20:30;;;;;;;29.88;18.98;;;;;;;4.55;54.60;101480.41;4960758;28;20090;-85
2022/03/03 10:23:00;;;;;;;29.35;18.13;;;;;;;4.70;54.21;101480.88;4959388;28;20114;-84
2022/03/03 10:25:37;;;;;;;27.75;17.92;;;;;;;4.86;53.61;101478.72;4958428;28;20600;-85
2022/03/03 10:28:19;;;;;;;27.83;15.43;;;;;;;4.98;52.87;101481.66;4933374;28;20050;-85
2022/03/03 10:31:09;;;;;;;35.70;22.35;;;;;;;5.10;52.04;101483.69;4960716;28;20799;-85
2022/03/03 10:33:42;;;;;;;28.05;17.52;;;;;;;5.18;52.10;101481.31;4947847;28;20481;-84
2022/03/03 10:36:21;;;;;;;26.67;16.75;;;;;;;5.20;52.07;101480.53;4964105;28;20414;-86
2022/03/03 10:38:56;;;;;;;26.35;16.48;;;;;;;5.29;52.39;101488.53;4957048;28;20109;-85
2022/03/03 10:41:29;;;;;;;;;;;;;;;5.46;50.07;101482.88;4961162;28;20639;-82
2022/03/03 10:44:01;;;;;;;25.05;15.43;;;;;;;5.63;50.28;101488.50;4965087;28;20017;-84
2022/03/03 10:46:29;;;;;;;27.15;16.50;;;;;;;5.80;49.88;101483.72;4944831;28;20082;-85
2022/03/03 10:48:56;;;;;;;27.30;16.73;;;;;;;5.87;49.96;101472.63;4951223;28;20062;-84
2022/03/03 10:51:25;;;;;;;34.13;18.65;;;;;;;5.97;50.39;101478.91;4960889;28;20729;-84
2022/03/03 10:54:04;;;;;;;30.35;17.63;;;;;;;6.01;51.02;101470.41;4961283;28;20079;-85
2022/03/03 10:56:44;;;;;;;30.63;18.77;;;;;;;5.97;51.03;101461.63;4936162;28;20109;-82
2022/03/03 10:59:17;;;;;;;37.92;20.13;;;;;;;5.96;51.56;101475.44;4960519;28;20046;-84
2022/03/03 11:01:45;;;;;;;29.95;17.80;;;;;;;6.05;51.47;101469.63;4946430;28;20406;-85
2022/03/03 11:04:20;;;;;;;30.48;18.13;;;;;;;6.31;51.23;101464.13;4943209;28;20327;-85
2022/03/03 11:06:49;;;;;;;29.95;18.55;;;;;;;6.76;48.41;101463.31;4940215;28;20090;-84
2022/03/03 11:09:20;;;;;;;27.73;17.75;;;;;;;7.19;47.62;101467.59;4937818;28;20050;-85
2022/03/03 11:11:47;;;;;;;35.70;20.17;;;;;;;7.57;47.49;101465.66;4960704;28;20132;-85
2022/03/03 11:14:14;;;;;;;26.13;17.02;;;;;;;8.01;47.09;101456.75;4952783;28;20042;-84
2022/03/03 11:16:41;;;;;;;34.58;21.40;;;;;;;8.57;45.94;101450.56;4947529;28;20108;-86
2022/03/03 11:19:11;;;;;;;26.02;17.77;;;;;;;9.15;44.66;101451.19;4952859;28;20054;-85
2022/03/03 11:21:39;;;;;;;26.45;16.73;;;;;;;9.61;43.92;101446.38;4957821;28;20208;-85